sensor_id;sensor_type;location;lat;lon;timestamp;temperature;humidity
15121;DHT22;7661;48.904;9.414;2023-06-14T00:01:02;16.40;65.70
15121;DHT22;7661;48.904;9.414;2023-06-14T00:03:31;16.40;66.00
15121;DHT22;7661;48.904;9.414;2023-06-14T00:05:58;16.40;66.00
15121;DHT22;7661;48.904;9.414;2023-06-14T00:08:25;16.40;66.00
15121;DHT22;7661;48.904;9.414;2023-06-14T00:10:52;16.30;65.60
15121;DHT22;7661;48.904;9.414;2023-06-14T00:13:20;16.20;65.90
15121;DHT22;7661;48.904;9.414;2023-06-14T00:15:47;16.10;66.60
15121;DHT22;7661;48.904;9.414;2023-06-14T00:18:14;16.10;66.80
15121;DHT22;7661;48.904;9.414;2023-06-14T00:20:42;16.10;67.30
15121;DHT22;7661;48.904;9.414;2023-06-14T00:23:09;16.00;67.70
15121;DHT22;7661;48.904;9.414;2023-06-14T00:25:36;15.90;68.50
15121;DHT22;7661;48.904;9.414;2023-06-14T00:28:03;15.80;68.60
15121;DHT22;7661;48.904;9.414;2023-06-14T00:30:31;15.80;68.40
15121;DHT22;7661;48.904;9.414;2023-06-14T00:32:58;15.80;68.80
15121;DHT22;7661;48.904;9.414;2023-06-14T00:35:25;15.80;68.30
15121;DHT22;7661;48.904;9.414;2023-06-14T00:37:52;15.70;68.70
15121;DHT22;7661;48.904;9.414;2023-06-14T00:40:20;15.70;68.90
15121;DHT22;7661;48.904;9.414;2023-06-14T00:42:47;15.70;69.10
15121;DHT22;7661;48.904;9.414;2023-06-14T00:45:14;15.70;69.60
15121;DHT22;7661;48.904;9.414;2023-06-14T00:47:43;15.70;70.40
15121;DHT22;7661;48.904;9.414;2023-06-14T00:50:10;15.70;69.00
15121;DHT22;7661;48.904;9.414;2023-06-14T00:52:37;15.60;69.30
15121;DHT22;7661;48.904;9.414;2023-06-14T00:55:04;15.60;69.70
15121;DHT22;7661;48.904;9.414;2023-06-14T00:57:31;15.50;69.50
15121;DHT22;7661;48.904;9.414;2023-06-14T00:59:58;15.50;70.20
15121;DHT22;7661;48.904;9.414;2023-06-14T01:02:25;15.40;70.80
15121;DHT22;7661;48.904;9.414;2023-06-14T01:04:53;15.40;70.90
15121;DHT22;7661;48.904;9.414;2023-06-14T01:07:29;15.30;71.10
15121;DHT22;7661;48.904;9.414;2023-06-14T01:10:09;15.30;71.40
15121;DHT22;7661;48.904;9.414;2023-06-14T01:12:44;15.20;71.30
15121;DHT22;7661;48.904;9.414;2023-06-14T01:15:15;15.20;71.50
15121;DHT22;7661;48.904;9.414;2023-06-14T01:17:42;15.20;71.60
15121;DHT22;7661;48.904;9.414;2023-06-14T01:20:13;15.20;71.80
15121;DHT22;7661;48.904;9.414;2023-06-14T01:22:50;15.10;71.50
15121;DHT22;7661;48.904;9.414;2023-06-14T01:25:17;15.10;71.80
15121;DHT22;7661;48.904;9.414;2023-06-14T01:27:47;15.10;71.50
15121;DHT22;7661;48.904;9.414;2023-06-14T01:30:15;15.10;71.40
15121;DHT22;7661;48.904;9.414;2023-06-14T01:32:42;15.10;71.50
15121;DHT22;7661;48.904;9.414;2023-06-14T01:35:10;15.00;70.20
15121;DHT22;7661;48.904;9.414;2023-06-14T01:37:38;15.00;71.10
15121;DHT22;7661;48.904;9.414;2023-06-14T01:40:10;14.90;72.50
15121;DHT22;7661;48.904;9.414;2023-06-14T01:42:38;14.90;72.00
15121;DHT22;7661;48.904;9.414;2023-06-14T01:45:06;14.90;72.70
15121;DHT22;7661;48.904;9.414;2023-06-14T01:47:34;14.80;72.80
15121;DHT22;7661;48.904;9.414;2023-06-14T01:50:01;14.80;73.50
15121;DHT22;7661;48.904;9.414;2023-06-14T01:52:28;14.90;74.50
15121;DHT22;7661;48.904;9.414;2023-06-14T01:54:55;14.90;73.80
15121;DHT22;7661;48.904;9.414;2023-06-14T01:57:25;14.90;74.00
15121;DHT22;7661;48.904;9.414;2023-06-14T01:59:52;14.80;73.80
15121;DHT22;7661;48.904;9.414;2023-06-14T02:02:19;14.80;74.50
15121;DHT22;7661;48.904;9.414;2023-06-14T02:04:46;14.70;74.40
15121;DHT22;7661;48.904;9.414;2023-06-14T02:07:14;14.70;74.90
15121;DHT22;7661;48.904;9.414;2023-06-14T02:09:40;14.70;75.10
15121;DHT22;7661;48.904;9.414;2023-06-14T02:12:08;14.60;75.30
15121;DHT22;7661;48.904;9.414;2023-06-14T02:14:37;14.60;74.80
15121;DHT22;7661;48.904;9.414;2023-06-14T02:17:05;14.60;74.50
15121;DHT22;7661;48.904;9.414;2023-06-14T02:19:32;14.50;74.30
15121;DHT22;7661;48.904;9.414;2023-06-14T02:21:59;14.50;75.10
15121;DHT22;7661;48.904;9.414;2023-06-14T02:24:26;14.50;73.90
15121;DHT22;7661;48.904;9.414;2023-06-14T02:26:53;14.50;74.60
15121;DHT22;7661;48.904;9.414;2023-06-14T02:29:20;14.50;74.70
15121;DHT22;7661;48.904;9.414;2023-06-14T02:31:48;14.40;74.20
15121;DHT22;7661;48.904;9.414;2023-06-14T02:34:15;14.40;74.70
15121;DHT22;7661;48.904;9.414;2023-06-14T02:36:43;14.40;75.00
15121;DHT22;7661;48.904;9.414;2023-06-14T02:39:10;14.40;75.20
15121;DHT22;7661;48.904;9.414;2023-06-14T02:41:37;14.30;75.00
15121;DHT22;7661;48.904;9.414;2023-06-14T02:44:04;14.30;75.90
15121;DHT22;7661;48.904;9.414;2023-06-14T02:46:31;14.30;75.10
15121;DHT22;7661;48.904;9.414;2023-06-14T02:48:59;14.20;75.70
15121;DHT22;7661;48.904;9.414;2023-06-14T02:51:26;14.20;75.90
15121;DHT22;7661;48.904;9.414;2023-06-14T02:53:53;14.20;76.80
15121;DHT22;7661;48.904;9.414;2023-06-14T02:56:20;14.20;76.40
15121;DHT22;7661;48.904;9.414;2023-06-14T02:58:48;14.10;77.30
15121;DHT22;7661;48.904;9.414;2023-06-14T03:01:16;14.10;76.80
15121;DHT22;7661;48.904;9.414;2023-06-14T03:03:43;14.00;77.70
15121;DHT22;7661;48.904;9.414;2023-06-14T03:06:11;14.00;77.80
15121;DHT22;7661;48.904;9.414;2023-06-14T03:08:39;13.90;77.30
15121;DHT22;7661;48.904;9.414;2023-06-14T03:11:07;13.90;78.70
15121;DHT22;7661;48.904;9.414;2023-06-14T03:13:34;13.90;78.00
15121;DHT22;7661;48.904;9.414;2023-06-14T03:16:01;13.90;78.00
15121;DHT22;7661;48.904;9.414;2023-06-14T03:18:29;13.90;78.20
15121;DHT22;7661;48.904;9.414;2023-06-14T03:21:00;13.90;78.30
15121;DHT22;7661;48.904;9.414;2023-06-14T03:23:29;13.90;79.30
15121;DHT22;7661;48.904;9.414;2023-06-14T03:25:56;13.90;78.50
15121;DHT22;7661;48.904;9.414;2023-06-14T03:28:23;13.80;79.50
15121;DHT22;7661;48.904;9.414;2023-06-14T03:30:51;13.70;79.30
15121;DHT22;7661;48.904;9.414;2023-06-14T03:33:18;13.60;79.60
15121;DHT22;7661;48.904;9.414;2023-06-14T03:35:45;13.40;79.60
15121;DHT22;7661;48.904;9.414;2023-06-14T03:38:12;13.30;79.90
15121;DHT22;7661;48.904;9.414;2023-06-14T03:40:40;13.20;80.20
15121;DHT22;7661;48.904;9.414;2023-06-14T03:43:07;13.20;80.60
15121;DHT22;7661;48.904;9.414;2023-06-14T03:45:34;13.10;80.70
15121;DHT22;7661;48.904;9.414;2023-06-14T03:48:01;13.00;80.90
15121;DHT22;7661;48.904;9.414;2023-06-14T03:50:28;13.10;81.10
15121;DHT22;7661;48.904;9.414;2023-06-14T03:52:55;13.10;81.10
15121;DHT22;7661;48.904;9.414;2023-06-14T03:55:22;13.10;82.10
15121;DHT22;7661;48.904;9.414;2023-06-14T03:57:52;13.10;81.50
15121;DHT22;7661;48.904;9.414;2023-06-14T04:00:19;13.10;82.10
15121;DHT22;7661;48.904;9.414;2023-06-14T04:02:46;13.00;81.70
15121;DHT22;7661;48.904;9.414;2023-06-14T04:05:13;13.00;81.70
15121;DHT22;7661;48.904;9.414;2023-06-14T04:07:42;13.00;81.50
15121;DHT22;7661;48.904;9.414;2023-06-14T04:10:11;13.00;81.70
15121;DHT22;7661;48.904;9.414;2023-06-14T04:12:38;13.00;83.00
15121;DHT22;7661;48.904;9.414;2023-06-14T04:15:08;13.00;82.00
15121;DHT22;7661;48.904;9.414;2023-06-14T04:17:36;13.00;82.30
15121;DHT22;7661;48.904;9.414;2023-06-14T04:20:04;13.10;82.70
15121;DHT22;7661;48.904;9.414;2023-06-14T04:22:33;13.10;82.70
15121;DHT22;7661;48.904;9.414;2023-06-14T04:25:00;13.10;82.90
15121;DHT22;7661;48.904;9.414;2023-06-14T04:27:27;13.20;82.20
15121;DHT22;7661;48.904;9.414;2023-06-14T04:29:56;13.20;82.60
15121;DHT22;7661;48.904;9.414;2023-06-14T04:32:26;13.30;82.90
15121;DHT22;7661;48.904;9.414;2023-06-14T04:34:55;13.40;82.10
15121;DHT22;7661;48.904;9.414;2023-06-14T04:37:23;13.40;81.60
15121;DHT22;7661;48.904;9.414;2023-06-14T04:39:50;13.40;82.50
15121;DHT22;7661;48.904;9.414;2023-06-14T04:42:17;13.40;83.90
15121;DHT22;7661;48.904;9.414;2023-06-14T04:44:46;13.40;83.50
15121;DHT22;7661;48.904;9.414;2023-06-14T04:47:14;13.30;84.80
15121;DHT22;7661;48.904;9.414;2023-06-14T04:49:43;13.30;82.60
15121;DHT22;7661;48.904;9.414;2023-06-14T04:52:10;13.40;82.90
15121;DHT22;7661;48.904;9.414;2023-06-14T04:54:38;13.40;82.30
15121;DHT22;7661;48.904;9.414;2023-06-14T04:57:08;13.40;82.50
15121;DHT22;7661;48.904;9.414;2023-06-14T04:59:39;13.40;82.60
15121;DHT22;7661;48.904;9.414;2023-06-14T05:02:06;13.50;83.30
15121;DHT22;7661;48.904;9.414;2023-06-14T05:04:34;13.60;82.30
15121;DHT22;7661;48.904;9.414;2023-06-14T05:07:06;13.70;82.00
15121;DHT22;7661;48.904;9.414;2023-06-14T05:09:33;13.70;82.30
15121;DHT22;7661;48.904;9.414;2023-06-14T05:12:01;13.80;82.50
15121;DHT22;7661;48.904;9.414;2023-06-14T05:14:28;13.90;81.40
15121;DHT22;7661;48.904;9.414;2023-06-14T05:16:54;13.90;81.20
15121;DHT22;7661;48.904;9.414;2023-06-14T05:19:22;14.00;80.40
15121;DHT22;7661;48.904;9.414;2023-06-14T05:21:49;14.00;80.60
15121;DHT22;7661;48.904;9.414;2023-06-14T05:24:17;14.00;80.60
15121;DHT22;7661;48.904;9.414;2023-06-14T05:26:45;14.10;82.30
15121;DHT22;7661;48.904;9.414;2023-06-14T05:29:12;14.10;81.40
15121;DHT22;7661;48.904;9.414;2023-06-14T05:31:39;14.20;80.90
15121;DHT22;7661;48.904;9.414;2023-06-14T05:34:05;14.30;81.70
15121;DHT22;7661;48.904;9.414;2023-06-14T05:36:32;14.30;81.50
15121;DHT22;7661;48.904;9.414;2023-06-14T05:38:59;14.40;81.10
15121;DHT22;7661;48.904;9.414;2023-06-14T05:41:29;14.50;81.40
15121;DHT22;7661;48.904;9.414;2023-06-14T05:43:57;14.60;81.30
15121;DHT22;7661;48.904;9.414;2023-06-14T05:46:25;14.60;81.00
15121;DHT22;7661;48.904;9.414;2023-06-14T05:48:52;14.70;81.80
15121;DHT22;7661;48.904;9.414;2023-06-14T05:51:20;14.80;81.00
15121;DHT22;7661;48.904;9.414;2023-06-14T05:53:47;14.90;81.00
15121;DHT22;7661;48.904;9.414;2023-06-14T05:56:15;14.90;81.00
15121;DHT22;7661;48.904;9.414;2023-06-14T05:58:44;15.00;81.30
15121;DHT22;7661;48.904;9.414;2023-06-14T06:01:11;15.10;81.70
15121;DHT22;7661;48.904;9.414;2023-06-14T06:03:38;15.30;82.50
15121;DHT22;7661;48.904;9.414;2023-06-14T06:06:05;15.40;81.70
15121;DHT22;7661;48.904;9.414;2023-06-14T06:08:33;15.50;81.70
15121;DHT22;7661;48.904;9.414;2023-06-14T06:11:00;15.60;81.80
15121;DHT22;7661;48.904;9.414;2023-06-14T06:13:27;15.70;82.40
15121;DHT22;7661;48.904;9.414;2023-06-14T06:15:56;15.90;82.70
15121;DHT22;7661;48.904;9.414;2023-06-14T06:18:22;16.00;81.90
15121;DHT22;7661;48.904;9.414;2023-06-14T06:20:49;16.10;81.10
15121;DHT22;7661;48.904;9.414;2023-06-14T06:23:16;16.20;90.80
15121;DHT22;7661;48.904;9.414;2023-06-14T06:25:43;16.40;92.30
15121;DHT22;7661;48.904;9.414;2023-06-14T06:28:10;16.50;92.10
15121;DHT22;7661;48.904;9.414;2023-06-14T06:30:37;16.60;92.10
15121;DHT22;7661;48.904;9.414;2023-06-14T06:33:06;16.70;92.10
15121;DHT22;7661;48.904;9.414;2023-06-14T06:35:33;16.80;92.20
15121;DHT22;7661;48.904;9.414;2023-06-14T06:38:00;16.90;91.90
15121;DHT22;7661;48.904;9.414;2023-06-14T06:40:27;17.00;92.10
15121;DHT22;7661;48.904;9.414;2023-06-14T06:42:54;17.10;92.70
15121;DHT22;7661;48.904;9.414;2023-06-14T06:45:21;17.20;95.90
15121;DHT22;7661;48.904;9.414;2023-06-14T06:47:49;17.40;97.50
15121;DHT22;7661;48.904;9.414;2023-06-14T06:50:18;17.50;99.60
15121;DHT22;7661;48.904;9.414;2023-06-14T06:52:45;17.60;99.30
15121;DHT22;7661;48.904;9.414;2023-06-14T06:55:12;17.80;99.50
15121;DHT22;7661;48.904;9.414;2023-06-14T06:57:39;17.90;99.30
15121;DHT22;7661;48.904;9.414;2023-06-14T07:00:07;18.00;99.50
15121;DHT22;7661;48.904;9.414;2023-06-14T07:02:35;18.10;98.00
15121;DHT22;7661;48.904;9.414;2023-06-14T07:05:02;18.30;98.30
15121;DHT22;7661;48.904;9.414;2023-06-14T07:07:31;18.40;98.20
15121;DHT22;7661;48.904;9.414;2023-06-14T07:09:58;18.50;98.00
15121;DHT22;7661;48.904;9.414;2023-06-14T07:12:25;18.70;97.90
15121;DHT22;7661;48.904;9.414;2023-06-14T07:14:52;18.90;97.40
15121;DHT22;7661;48.904;9.414;2023-06-14T07:17:19;19.10;96.60
15121;DHT22;7661;48.904;9.414;2023-06-14T07:19:46;19.20;96.40
15121;DHT22;7661;48.904;9.414;2023-06-14T07:22:13;19.30;96.00
15121;DHT22;7661;48.904;9.414;2023-06-14T07:24:41;19.40;95.80
15121;DHT22;7661;48.904;9.414;2023-06-14T07:27:08;19.60;96.10
15121;DHT22;7661;48.904;9.414;2023-06-14T07:29:35;19.60;95.50
15121;DHT22;7661;48.904;9.414;2023-06-14T07:32:02;19.70;96.00
15121;DHT22;7661;48.904;9.414;2023-06-14T07:34:29;19.80;95.80
15121;DHT22;7661;48.904;9.414;2023-06-14T07:36:56;19.90;96.00
15121;DHT22;7661;48.904;9.414;2023-06-14T07:39:23;20.10;96.30
15121;DHT22;7661;48.904;9.414;2023-06-14T07:41:51;20.30;97.30
15121;DHT22;7661;48.904;9.414;2023-06-14T07:44:18;20.50;96.60
15121;DHT22;7661;48.904;9.414;2023-06-14T07:46:45;20.70;96.40
15121;DHT22;7661;48.904;9.414;2023-06-14T07:49:14;20.80;98.10
15121;DHT22;7661;48.904;9.414;2023-06-14T07:51:41;20.90;98.10
15121;DHT22;7661;48.904;9.414;2023-06-14T07:54:09;20.90;98.30
15121;DHT22;7661;48.904;9.414;2023-06-14T07:56:36;21.00;98.40
15121;DHT22;7661;48.904;9.414;2023-06-14T07:59:04;21.20;97.90
15121;DHT22;7661;48.904;9.414;2023-06-14T08:01:33;21.30;97.60
15121;DHT22;7661;48.904;9.414;2023-06-14T08:03:59;21.50;97.40
15121;DHT22;7661;48.904;9.414;2023-06-14T08:06:26;21.70;97.50
15121;DHT22;7661;48.904;9.414;2023-06-14T08:08:53;21.90;97.30
15121;DHT22;7661;48.904;9.414;2023-06-14T08:11:20;22.10;97.50
15121;DHT22;7661;48.904;9.414;2023-06-14T08:13:49;22.20;97.00
15121;DHT22;7661;48.904;9.414;2023-06-14T08:16:17;22.30;96.60
15121;DHT22;7661;48.904;9.414;2023-06-14T08:18:44;22.40;96.60
15121;DHT22;7661;48.904;9.414;2023-06-14T08:21:11;22.50;97.00
15121;DHT22;7661;48.904;9.414;2023-06-14T08:23:40;22.60;97.40
15121;DHT22;7661;48.904;9.414;2023-06-14T08:26:08;22.70;97.10
15121;DHT22;7661;48.904;9.414;2023-06-14T08:28:35;22.90;95.90
15121;DHT22;7661;48.904;9.414;2023-06-14T08:31:02;23.00;96.10
15121;DHT22;7661;48.904;9.414;2023-06-14T08:33:30;23.10;96.60
15121;DHT22;7661;48.904;9.414;2023-06-14T08:35:59;23.30;97.00
15121;DHT22;7661;48.904;9.414;2023-06-14T08:38:26;23.60;96.40
15121;DHT22;7661;48.904;9.414;2023-06-14T08:40:57;23.60;95.90
15121;DHT22;7661;48.904;9.414;2023-06-14T08:43:24;23.60;96.50
15121;DHT22;7661;48.904;9.414;2023-06-14T08:45:56;23.80;96.70
15121;DHT22;7661;48.904;9.414;2023-06-14T08:48:26;23.90;96.70
15121;DHT22;7661;48.904;9.414;2023-06-14T08:50:56;23.90;96.90
15121;DHT22;7661;48.904;9.414;2023-06-14T08:53:28;24.10;97.00
15121;DHT22;7661;48.904;9.414;2023-06-14T08:55:57;24.20;98.00
15121;DHT22;7661;48.904;9.414;2023-06-14T08:58:27;24.30;97.50
15121;DHT22;7661;48.904;9.414;2023-06-14T09:00:55;24.40;97.20
15121;DHT22;7661;48.904;9.414;2023-06-14T09:03:22;24.50;97.00
15121;DHT22;7661;48.904;9.414;2023-06-14T09:05:56;24.50;97.70
15121;DHT22;7661;48.904;9.414;2023-06-14T09:08:24;24.70;98.00
15121;DHT22;7661;48.904;9.414;2023-06-14T09:13:20;24.90;98.50
15121;DHT22;7661;48.904;9.414;2023-06-14T09:15:47;24.90;98.40
15121;DHT22;7661;48.904;9.414;2023-06-14T09:18:14;25.10;97.70
15121;DHT22;7661;48.904;9.414;2023-06-14T09:33:16;26.30;91.90
15121;DHT22;7661;48.904;9.414;2023-06-14T09:35:45;26.40;55.80
15121;DHT22;7661;48.904;9.414;2023-06-14T09:38:13;26.50;56.90
15121;DHT22;7661;48.904;9.414;2023-06-14T09:40:40;26.60;56.20
15121;DHT22;7661;48.904;9.414;2023-06-14T09:43:07;26.70;56.40
15121;DHT22;7661;48.904;9.414;2023-06-14T09:45:36;27.10;55.70
15121;DHT22;7661;48.904;9.414;2023-06-14T09:48:05;27.40;54.70
15121;DHT22;7661;48.904;9.414;2023-06-14T09:50:32;27.70;54.50
15121;DHT22;7661;48.904;9.414;2023-06-14T09:53:03;28.10;53.70
15121;DHT22;7661;48.904;9.414;2023-06-14T09:55:34;28.50;52.80
15121;DHT22;7661;48.904;9.414;2023-06-14T09:58:05;28.80;51.30
15121;DHT22;7661;48.904;9.414;2023-06-14T10:00:32;29.10;51.10
15121;DHT22;7661;48.904;9.414;2023-06-14T10:03:06;29.40;51.60
15121;DHT22;7661;48.904;9.414;2023-06-14T10:05:36;29.60;49.90
15121;DHT22;7661;48.904;9.414;2023-06-14T10:08:06;29.80;50.00
15121;DHT22;7661;48.904;9.414;2023-06-14T10:10:37;30.00;48.10
15121;DHT22;7661;48.904;9.414;2023-06-14T10:13:05;30.20;48.60
15121;DHT22;7661;48.904;9.414;2023-06-14T10:15:37;30.30;46.10
15121;DHT22;7661;48.904;9.414;2023-06-14T10:18:09;29.80;45.30
15121;DHT22;7661;48.904;9.414;2023-06-14T10:20:45;29.10;46.20
15121;DHT22;7661;48.904;9.414;2023-06-14T10:23:19;28.70;47.10
15121;DHT22;7661;48.904;9.414;2023-06-14T10:25:50;28.80;46.70
15121;DHT22;7661;48.904;9.414;2023-06-14T10:28:18;29.00;45.40
15121;DHT22;7661;48.904;9.414;2023-06-14T10:31:07;29.30;46.30
15121;DHT22;7661;48.904;9.414;2023-06-14T10:33:35;29.80;47.20
15121;DHT22;7661;48.904;9.414;2023-06-14T10:36:26;30.20;45.30
15121;DHT22;7661;48.904;9.414;2023-06-14T10:38:57;29.90;45.70
15121;DHT22;7661;48.904;9.414;2023-06-14T10:41:27;29.40;45.60
15121;DHT22;7661;48.904;9.414;2023-06-14T10:46:55;28.60;47.00
15121;DHT22;7661;48.904;9.414;2023-06-14T10:49:38;29.20;45.60
15121;DHT22;7661;48.904;9.414;2023-06-14T10:52:09;29.90;46.00
15121;DHT22;7661;48.904;9.414;2023-06-14T10:55:02;30.50;44.20
15121;DHT22;7661;48.904;9.414;2023-06-14T10:57:33;30.90;43.50
15121;DHT22;7661;48.904;9.414;2023-06-14T11:00:01;31.20;43.80
15121;DHT22;7661;48.904;9.414;2023-06-14T11:05:48;31.60;41.40
15121;DHT22;7661;48.904;9.414;2023-06-14T11:08:47;31.60;41.90
15121;DHT22;7661;48.904;9.414;2023-06-14T11:11:18;31.80;42.70
15121;DHT22;7661;48.904;9.414;2023-06-14T11:13:51;32.50;42.20
15121;DHT22;7661;48.904;9.414;2023-06-14T11:16:18;32.80;40.70
15121;DHT22;7661;48.904;9.414;2023-06-14T11:18:45;33.20;41.10
15121;DHT22;7661;48.904;9.414;2023-06-14T11:21:15;33.50;39.40
15121;DHT22;7661;48.904;9.414;2023-06-14T11:23:49;33.60;39.70
15121;DHT22;7661;48.904;9.414;2023-06-14T11:26:16;34.00;40.00
15121;DHT22;7661;48.904;9.414;2023-06-14T11:28:55;34.40;39.40
15121;DHT22;7661;48.904;9.414;2023-06-14T11:31:23;34.60;37.90
15121;DHT22;7661;48.904;9.414;2023-06-14T11:33:50;34.30;38.40
15121;DHT22;7661;48.904;9.414;2023-06-14T11:36:17;34.20;39.20
15121;DHT22;7661;48.904;9.414;2023-06-14T11:38:44;33.70;38.70
15121;DHT22;7661;48.904;9.414;2023-06-14T11:41:11;33.10;39.60
15121;DHT22;7661;48.904;9.414;2023-06-14T11:43:39;32.40;40.50
15121;DHT22;7661;48.904;9.414;2023-06-14T11:46:13;31.90;41.00
15121;DHT22;7661;48.904;9.414;2023-06-14T11:48:42;31.80;42.00
15121;DHT22;7661;48.904;9.414;2023-06-14T11:51:10;31.80;40.70
15121;DHT22;7661;48.904;9.414;2023-06-14T11:53:37;32.10;40.90
15121;DHT22;7661;48.904;9.414;2023-06-14T11:56:05;32.20;40.70
15121;DHT22;7661;48.904;9.414;2023-06-14T11:58:32;32.70;40.70
15121;DHT22;7661;48.904;9.414;2023-06-14T12:00:59;32.60;39.30
15121;DHT22;7661;48.904;9.414;2023-06-14T12:03:27;32.90;40.00
15121;DHT22;7661;48.904;9.414;2023-06-14T12:06:04;33.50;39.00
15121;DHT22;7661;48.904;9.414;2023-06-14T12:08:33;33.80;38.50
15121;DHT22;7661;48.904;9.414;2023-06-14T12:11:04;34.10;39.10
15121;DHT22;7661;48.904;9.414;2023-06-14T12:13:31;34.60;39.20
15121;DHT22;7661;48.904;9.414;2023-06-14T12:15:58;34.80;37.40
15121;DHT22;7661;48.904;9.414;2023-06-14T12:18:33;35.10;39.20
15121;DHT22;7661;48.904;9.414;2023-06-14T12:21:01;35.30;37.50
15121;DHT22;7661;48.904;9.414;2023-06-14T12:23:42;34.60;38.10
15121;DHT22;7661;48.904;9.414;2023-06-14T12:26:09;33.50;38.70
15121;DHT22;7661;48.904;9.414;2023-06-14T12:28:36;32.90;39.80
15121;DHT22;7661;48.904;9.414;2023-06-14T12:31:03;32.20;40.60
15121;DHT22;7661;48.904;9.414;2023-06-14T12:33:30;31.90;40.50
15121;DHT22;7661;48.904;9.414;2023-06-14T12:35:58;31.80;41.20
15121;DHT22;7661;48.904;9.414;2023-06-14T12:38:25;31.80;40.50
15121;DHT22;7661;48.904;9.414;2023-06-14T12:40:52;31.80;40.40
15121;DHT22;7661;48.904;9.414;2023-06-14T12:43:19;31.60;42.30
15121;DHT22;7661;48.904;9.414;2023-06-14T12:45:46;31.50;41.50
15121;DHT22;7661;48.904;9.414;2023-06-14T12:48:12;31.50;41.10
15121;DHT22;7661;48.904;9.414;2023-06-14T12:50:39;31.50;41.10
15121;DHT22;7661;48.904;9.414;2023-06-14T12:53:08;32.20;41.70
15121;DHT22;7661;48.904;9.414;2023-06-14T12:55:35;33.10;41.70
15121;DHT22;7661;48.904;9.414;2023-06-14T12:58:02;34.00;39.50
15121;DHT22;7661;48.904;9.414;2023-06-14T13:00:29;34.60;38.70
15121;DHT22;7661;48.904;9.414;2023-06-14T13:02:56;34.60;37.60
15121;DHT22;7661;48.904;9.414;2023-06-14T13:05:23;34.90;37.40
15121;DHT22;7661;48.904;9.414;2023-06-14T13:07:50;34.90;35.40
15121;DHT22;7661;48.904;9.414;2023-06-14T13:10:19;34.80;36.80
15121;DHT22;7661;48.904;9.414;2023-06-14T13:12:46;34.80;37.40
15121;DHT22;7661;48.904;9.414;2023-06-14T13:15:13;35.00;36.80
15121;DHT22;7661;48.904;9.414;2023-06-14T13:17:40;35.30;35.80
15121;DHT22;7661;48.904;9.414;2023-06-14T13:20:09;34.90;36.50
15121;DHT22;7661;48.904;9.414;2023-06-14T13:22:37;34.70;36.20
15121;DHT22;7661;48.904;9.414;2023-06-14T13:25:06;34.30;37.10
15121;DHT22;7661;48.904;9.414;2023-06-14T13:27:34;34.20;38.30
15121;DHT22;7661;48.904;9.414;2023-06-14T13:30:02;34.10;37.40
15121;DHT22;7661;48.904;9.414;2023-06-14T13:32:31;33.70;37.60
15121;DHT22;7661;48.904;9.414;2023-06-14T13:34:58;33.20;38.80
15121;DHT22;7661;48.904;9.414;2023-06-14T13:37:25;32.70;40.30
15121;DHT22;7661;48.904;9.414;2023-06-14T13:39:52;32.20;39.00
15121;DHT22;7661;48.904;9.414;2023-06-14T13:42:19;31.80;39.90
15121;DHT22;7661;48.904;9.414;2023-06-14T13:44:47;31.40;40.70
15121;DHT22;7661;48.904;9.414;2023-06-14T13:47:14;31.30;40.90
15121;DHT22;7661;48.904;9.414;2023-06-14T13:49:41;31.10;42.00
15121;DHT22;7661;48.904;9.414;2023-06-14T13:52:11;30.90;42.30
15121;DHT22;7661;48.904;9.414;2023-06-14T13:54:39;30.80;41.40
15121;DHT22;7661;48.904;9.414;2023-06-14T13:57:09;30.70;41.90
15121;DHT22;7661;48.904;9.414;2023-06-14T13:59:38;30.60;41.90
15121;DHT22;7661;48.904;9.414;2023-06-14T14:02:07;30.70;42.00
15121;DHT22;7661;48.904;9.414;2023-06-14T14:04:34;30.50;42.40
15121;DHT22;7661;48.904;9.414;2023-06-14T14:07:01;30.50;42.10
15121;DHT22;7661;48.904;9.414;2023-06-14T14:09:29;30.50;42.30
15121;DHT22;7661;48.904;9.414;2023-06-14T14:11:56;30.40;43.10
15121;DHT22;7661;48.904;9.414;2023-06-14T14:14:23;30.40;42.60
15121;DHT22;7661;48.904;9.414;2023-06-14T14:16:50;30.50;42.00
15121;DHT22;7661;48.904;9.414;2023-06-14T14:19:20;30.70;42.30
15121;DHT22;7661;48.904;9.414;2023-06-14T14:21:48;31.30;41.50
15121;DHT22;7661;48.904;9.414;2023-06-14T14:24:15;31.90;40.20
15121;DHT22;7661;48.904;9.414;2023-06-14T14:26:42;32.30;40.10
15121;DHT22;7661;48.904;9.414;2023-06-14T14:29:09;32.70;39.60
15121;DHT22;7661;48.904;9.414;2023-06-14T14:31:37;33.10;39.20
15121;DHT22;7661;48.904;9.414;2023-06-14T14:34:04;33.20;39.60
15121;DHT22;7661;48.904;9.414;2023-06-14T14:36:33;33.30;39.00
15121;DHT22;7661;48.904;9.414;2023-06-14T14:39:03;33.40;38.70
15121;DHT22;7661;48.904;9.414;2023-06-14T14:41:30;33.50;38.00
15121;DHT22;7661;48.904;9.414;2023-06-14T14:43:57;33.60;38.60
15121;DHT22;7661;48.904;9.414;2023-06-14T14:46:26;33.70;38.80
15121;DHT22;7661;48.904;9.414;2023-06-14T14:48:53;33.70;38.40
15121;DHT22;7661;48.904;9.414;2023-06-14T14:51:20;33.60;38.40
15121;DHT22;7661;48.904;9.414;2023-06-14T14:53:49;33.50;38.10
15121;DHT22;7661;48.904;9.414;2023-06-14T14:56:16;33.50;38.20
15121;DHT22;7661;48.904;9.414;2023-06-14T14:58:44;33.70;38.10
15121;DHT22;7661;48.904;9.414;2023-06-14T15:01:10;33.80;37.50
15121;DHT22;7661;48.904;9.414;2023-06-14T15:03:37;33.70;37.90
15121;DHT22;7661;48.904;9.414;2023-06-14T15:06:05;33.70;38.10
15121;DHT22;7661;48.904;9.414;2023-06-14T15:08:32;33.90;37.40
15121;DHT22;7661;48.904;9.414;2023-06-14T15:11:00;34.10;37.00
15121;DHT22;7661;48.904;9.414;2023-06-14T15:13:28;34.10;37.30
15121;DHT22;7661;48.904;9.414;2023-06-14T15:15:55;33.90;37.20
15121;DHT22;7661;48.904;9.414;2023-06-14T15:18:22;33.90;36.60
15121;DHT22;7661;48.904;9.414;2023-06-14T15:20:49;33.60;37.10
15121;DHT22;7661;48.904;9.414;2023-06-14T15:23:16;33.60;37.10
15121;DHT22;7661;48.904;9.414;2023-06-14T15:25:45;33.40;37.40
15121;DHT22;7661;48.904;9.414;2023-06-14T15:28:14;33.30;37.90
15121;DHT22;7661;48.904;9.414;2023-06-14T15:30:42;33.40;37.10
15121;DHT22;7661;48.904;9.414;2023-06-14T15:33:09;33.40;37.10
15121;DHT22;7661;48.904;9.414;2023-06-14T15:35:36;33.40;37.50
15121;DHT22;7661;48.904;9.414;2023-06-14T15:38:02;33.40;37.30
15121;DHT22;7661;48.904;9.414;2023-06-14T15:40:29;33.20;38.10
15121;DHT22;7661;48.904;9.414;2023-06-14T15:42:57;33.00;38.20
15121;DHT22;7661;48.904;9.414;2023-06-14T15:45:25;32.80;38.30
15121;DHT22;7661;48.904;9.414;2023-06-14T15:47:52;32.40;38.70
15121;DHT22;7661;48.904;9.414;2023-06-14T15:50:19;32.10;39.40
15121;DHT22;7661;48.904;9.414;2023-06-14T15:52:46;31.80;39.00
15121;DHT22;7661;48.904;9.414;2023-06-14T15:55:13;31.60;40.00
15121;DHT22;7661;48.904;9.414;2023-06-14T15:57:40;31.50;40.20
15121;DHT22;7661;48.904;9.414;2023-06-14T16:00:08;31.30;39.70
15121;DHT22;7661;48.904;9.414;2023-06-14T16:02:37;31.20;39.90
15121;DHT22;7661;48.904;9.414;2023-06-14T16:05:04;30.90;40.90
15121;DHT22;7661;48.904;9.414;2023-06-14T16:07:31;30.60;41.20
15121;DHT22;7661;48.904;9.414;2023-06-14T16:09:59;30.40;40.90
15121;DHT22;7661;48.904;9.414;2023-06-14T16:12:26;30.30;42.00